Minerva Astra — 9HDW7 — position and weather

sailwx.info

Track history (hours):
 
Tides and Currents Weather Stations Pressure Air Temp Water Temp Dewpoint Dewpoint Depression Visibility Wind Speed Wind Dir Waves Ship Positions

Minerva Astra

Last reported at 2014-Jul-17 08:17 UTC. Time now 2014-Jul-24 19:18 UTC.
Position N 36°26' E 015°07'.

Length 248 m; draft 11.9 m.

Type: Tanker. MMSI: 256703000.

Date/timePositionNaut miles runAvg speedWind from/ knotsBaromVisibWave heightAir tempDewpointWater temp
2014-Jul-17 08:17N 36°26' E 015°07'810.5
2014-Jul-17 07:33N 36°27' E 014°57'1311.8
2014-Jul-17 06:26N 36°28' E 014°41'1113.0
2014-Jul-17 05:33N 36°29' E 014°27'1312.7
2014-Jul-17 04:33N 36°30' E 014°11'1212.4
2014-Jul-17 03:33N 36°32' E 013°56'1212.5
2014-Jul-17 02:33N 36°33' E 013°40'1212.1
2014-Jul-17 01:33N 36°37' E 013°26'1212.1
2014-Jul-17 00:33N 36°41' E 013°12'1212.4
2014-Jul-16 23:33N 36°46' E 012°57'1312.6
2014-Jul-16 22:33N 36°51' E 012°43'5012.5
2014-Jul-16 18:33N 37°09' E 011°45'2511.7
2014-Jul-16 16:26N 37°20' E 011°17'  
2014-Jul-14 09:04N 36°45' E 005°07'1 2.4
2014-Jul-14 08:32N 36°46' E 005°08'7 3.1
2014-Jul-14 06:17N 36°53' E 005°09'0 0.3
2014-Jul-14 04:29N 36°54' E 005°10'0 0.2
2014-Jul-14 03:22N 36°54' E 005°10'5 0.6
2014-Jul-13 19:22N 36°53' E 005°16'0 0.4
2014-Jul-13 18:33N 36°53' E 005°17'5 5.2
2014-Jul-13 17:33N 36°49' E 005°12'79 4.3
2014-Jul-12 23:19N 37°19' E 003°40'5 6.8
2014-Jul-12 22:33N 37°20' E 003°34'24 7.0
2014-Jul-12 19:05N 37°25' E 003°04'710.7
2014-Jul-12 18:26N 37°26' E 002°56'16 8.4
2014-Jul-12 16:33N 37°28' E 002°36'10 4.3
2014-Jul-12 14:18N 37°30' E 002°24'42 3.8
2014-Jul-12 03:12N 37°29' E 001°32'  
2014-Jul-09 22:33N 37°34' W 000°60'  
2014-Jul-07 13:19N 35°60' W 005°20'  
Track history (hours):
 
Tides and Currents Weather Stations Pressure Air Temp Water Temp Dewpoint Dewpoint Depression Visibility Wind Speed Wind Dir Waves Ship Positions

Minerva Astra

Last reported at 2014-Jul-17 08:17 UTC. Time now 2014-Jul-24 19:18 UTC.
Position N 36°26' E 015°07'.

Length 248 m; draft 11.9 m.

Type: Tanker. MMSI: 256703000.

Date/timePositionNaut miles runAvg speedWind from/ knotsBaromVisibWave heightAir tempDewpointWater temp
2014-Jul-17 08:17N 36°26' E 015°07'810.5
2014-Jul-17 07:33N 36°27' E 014°57'1311.8
2014-Jul-17 06:26N 36°28' E 014°41'1113.0
2014-Jul-17 05:33N 36°29' E 014°27'1312.7
2014-Jul-17 04:33N 36°30' E 014°11'1212.4
2014-Jul-17 03:33N 36°32' E 013°56'1212.5
2014-Jul-17 02:33N 36°33' E 013°40'1212.1
2014-Jul-17 01:33N 36°37' E 013°26'1212.1
2014-Jul-17 00:33N 36°41' E 013°12'1212.4
2014-Jul-16 23:33N 36°46' E 012°57'1312.6
2014-Jul-16 22:33N 36°51' E 012°43'5012.5
2014-Jul-16 18:33N 37°09' E 011°45'2511.7
2014-Jul-16 16:26N 37°20' E 011°17'  
2014-Jul-14 09:04N 36°45' E 005°07'1 2.4
2014-Jul-14 08:32N 36°46' E 005°08'7 3.1
2014-Jul-14 06:17N 36°53' E 005°09'0 0.3
2014-Jul-14 04:29N 36°54' E 005°10'0 0.2
2014-Jul-14 03:22N 36°54' E 005°10'5 0.6
2014-Jul-13 19:22N 36°53' E 005°16'0 0.4
2014-Jul-13 18:33N 36°53' E 005°17'5 5.2
2014-Jul-13 17:33N 36°49' E 005°12'79 4.3
2014-Jul-12 23:19N 37°19' E 003°40'5 6.8
2014-Jul-12 22:33N 37°20' E 003°34'24 7.0
2014-Jul-12 19:05N 37°25' E 003°04'710.7
2014-Jul-12 18:26N 37°26' E 002°56'16 8.4
2014-Jul-12 16:33N 37°28' E 002°36'10 4.3
2014-Jul-12 14:18N 37°30' E 002°24'42 3.8
2014-Jul-12 03:12N 37°29' E 001°32'  
2014-Jul-09 22:33N 37°34' W 000°60'  
2014-Jul-07 13:19N 35°60' W 005°20'  

Dump ship's entire track history